Time;durP1;ratioP1;P1;durP2;ratioP2;P2;SDS_P1;SDS_P2;PMS_P1;PMS_P2;Temp;Humidity;BMP_temperature;BMP_pressure;BME280_temperature;BME280_humidity;BME280_pressure;Samples;Min_cycle;Max_cycle;Signal;HPM_P1;HPM_P2
2021/09/02 00:00:28;;;;;;;7.90;5.38;;;;;;;16.03;67.81;100754.66;815079;54;20035;-78
2021/09/02 00:01:14;;;;;;;7.47;4.80;;;;;;;16.09;67.50;100761.25;815041;46;20165;-77
2021/09/02 00:02:03;;;;;;;6.18;4.75;;;;;;;16.11;67.48;100764.66;815073;54;20068;-78
2021/09/02 00:02:49;;;;;;;7.43;5.50;;;;;;;15.99;67.46;100762.25;814906;54;20117;-78
2021/09/02 00:03:38;;;;;;;7.00;4.97;;;;;;;16.03;67.33;100760.94;815027;46;20035;-79
2021/09/02 00:04:24;;;;;;;9.52;6.18;;;;;;;15.95;67.58;100758.19;815110;54;21043;-79
2021/09/02 00:05:13;;;;;;;8.25;6.10;;;;;;;15.93;67.67;100760.22;815221;54;20059;-80
2021/09/02 00:05:59;;;;;;;11.50;5.75;;;;;;;15.91;67.87;100759.53;815205;46;20714;-79
2021/09/02 00:06:50;;;;;;;7.57;5.70;;;;;;;15.90;67.77;100755.13;815109;46;20068;-82
2021/09/02 00:07:36;;;;;;;10.15;5.82;;;;;;;15.82;68.12;100760.47;815132;54;20090;-80
2021/09/02 00:08:25;;;;;;;8.45;5.53;;;;;;;15.81;67.90;100754.25;815112;39;20810;-79
2021/09/02 00:09:11;;;;;;;9.38;6.45;;;;;;;15.81;67.97;100756.06;815287;47;20038;-81
2021/09/02 00:09:59;;;;;;;9.52;5.90;;;;;;;15.85;67.83;100752.09;815637;54;20060;-81
2021/09/02 00:10:45;;;;;;;8.13;5.65;;;;;;;15.81;68.20;100748.00;840794;39;20713;-80
2021/09/02 00:11:34;;;;;;;8.70;5.85;;;;;;;15.79;68.14;100753.56;816425;46;20040;-80
2021/09/02 00:12:20;;;;;;;8.63;5.53;;;;;;;15.77;68.22;100749.34;816493;46;20060;-82
2021/09/02 00:13:09;;;;;;;7.68;5.47;;;;;;;15.81;68.01;100748.00;815864;54;20086;-83
2021/09/02 00:13:55;;;;;;;7.45;5.40;;;;;;;15.83;68.15;100751.38;815845;47;20080;-81
2021/09/02 00:14:43;;;;;;;7.63;5.10;;;;;;;15.80;67.95;100749.00;816022;46;20018;-81
2021/09/02 00:15:30;;;;;;;7.03;4.65;;;;;;;15.86;67.69;100748.41;815939;47;20023;-81
2021/09/02 00:16:18;;;;;;;6.38;4.70;;;;;;;15.89;67.89;100748.91;815875;47;20023;-80
2021/09/02 00:17:04;;;;;;;6.22;4.57;;;;;;;15.93;67.45;100743.16;815802;47;20140;-81
2021/09/02 00:17:53;;;;;;;9.15;4.97;;;;;;;15.95;67.47;100742.03;815886;46;20042;-82
2021/09/02 00:18:39;;;;;;;7.28;4.50;;;;;;;16.00;67.35;100736.97;815916;47;20050;-82
2021/09/02 00:19:28;;;;;;;7.13;5.00;;;;;;;16.02;67.42;100737.66;815852;46;20034;-82
2021/09/02 00:20:14;;;;;;;8.20;4.78;;;;;;;15.96;67.40;100754.50;815850;47;20094;-81
2021/09/02 00:21:02;;;;;;;6.40;4.57;;;;;;;16.00;67.44;100744.22;815900;54;20035;-81
2021/09/02 00:21:51;;;;;;;7.78;4.28;;;;;;;16.01;67.23;100749.44;815869;54;20051;-83
2021/09/02 00:22:40;;;;;;;6.30;4.32;;;;;;;16.03;66.98;100739.34;815890;47;20116;-82
2021/09/02 00:23:26;;;;;;;6.82;4.60;;;;;;;16.03;67.10;100739.34;815800;47;20109;-80
2021/09/02 00:25:54;;;;;;;;;;;;;;;15.80;67.80;100744.47;816391;46;19994;-81
2021/09/02 00:26:47;;;;;;;7.20;4.50;;;;;;;15.85;67.67;100746.69;815888;54;19950;-83
2021/09/02 00:28:04;;;;;;;6.43;4.40;;;;;;;15.87;67.73;100744.69;816196;39;20841;-81
2021/09/02 00:29:01;;;;;;;7.78;4.32;;;;;;;15.86;67.47;100738.44;815931;46;20078;-83
2021/09/02 00:29:50;;;;;;;5.85;4.18;;;;;;;15.89;67.38;100742.66;815746;54;20034;-82
2021/09/02 00:30:51;;;;;;;7.15;4.18;;;;;;;15.88;67.59;100741.81;815896;54;20073;-81
2021/09/02 00:31:40;;;;;;;6.18;4.13;;;;;;;15.93;67.49;100735.94;815835;54;20035;-81
2021/09/02 00:32:26;;;;;;;7.35;4.57;;;;;;;15.97;67.13;100734.59;815950;46;20102;-83
2021/09/02 00:33:18;;;;;;;7.55;4.90;;;;;;;15.94;67.40;100739.47;815842;54;20026;-81
2021/09/02 00:34:04;;;;;;;7.90;3.80;;;;;;;15.99;67.32;100740.69;815908;54;20106;-80
2021/09/02 00:35:07;;;;;;;6.97;3.80;;;;;;;15.99;67.42;100727.19;815881;54;20042;-81
2021/09/02 00:35:53;;;;;;;7.72;4.57;;;;;;;15.96;67.35;100738.31;815890;54;21269;-82
2021/09/02 00:36:39;;;;;;;7.47;4.68;;;;;;;15.97;67.31;100734.59;815998;54;20046;-81
2021/09/02 00:37:30;;;;;;;7.00;4.68;;;;;;;15.97;67.36;100733.75;815827;54;20034;-81
2021/09/02 00:38:16;;;;;;;6.53;4.65;;;;;;;15.98;67.67;100728.19;815947;54;20051;-81
2021/09/02 00:40:35;;;;;;;;;;;;;;;15.62;68.37;100736.44;815627;47;20042;-79
2021/09/02 00:41:21;;;;;;;7.35;5.72;;;;;;;15.62;68.70;100741.84;815892;47;19986;-81
2021/09/02 00:42:50;;;;;;;7.10;5.00;;;;;;;15.66;68.43;100728.88;815907;54;20060;-83
2021/09/02 00:44:07;;;;;;;6.38;4.45;;;;;;;15.69;68.54;100732.09;815710;46;20046;-82
2021/09/02 00:44:57;;;;;;;7.40;4.88;;;;;;;15.71;68.30;100726.56;815673;54;20042;-81
2021/09/02 00:45:43;;;;;;;6.60;4.50;;;;;;;15.80;67.82;100728.28;818281;31;20863;-82
2021/09/02 00:46:55;;;;;;;6.68;4.43;;;;;;;15.80;68.00;100728.28;815822;54;20079;-83
2021/09/02 00:47:53;;;;;;;5.85;4.22;;;;;;;15.83;67.52;100733.34;815722;47;20090;-83
2021/09/02 00:48:58;;;;;;;5.93;3.83;;;;;;;15.86;67.39;100732.22;815624;47;20034;-81
2021/09/02 00:50:23;;;;;;;6.70;4.05;;;;;;;15.85;67.63;100730.53;815790;54;20102;-81
2021/09/02 00:51:11;;;;;;;8.10;4.72;;;;;;;15.83;67.62;100737.88;815731;47;20046;-81
2021/09/02 00:51:59;;;;;;;8.80;4.85;;;;;;;15.84;67.78;100729.66;815910;54;20049;-81
2021/09/02 00:52:50;;;;;;;5.72;4.07;;;;;;;15.87;67.54;100726.66;815692;47;20042;-81
2021/09/02 00:53:37;;;;;;;5.78;4.30;;;;;;;15.86;67.83;100743.00;815914;54;20078;-84
2021/09/02 00:54:25;;;;;;;8.05;5.03;;;;;;;15.85;67.58;100728.66;815910;54;20035;-82
2021/09/02 00:55:27;;;;;;;6.65;4.68;;;;;;;15.78;67.65;100729.44;815885;54;20050;-80
2021/09/02 00:56:16;;;;;;;6.55;4.57;;;;;;;15.85;67.72;100733.22;815850;54;20035;-83
2021/09/02 00:57:02;;;;;;;7.35;4.90;;;;;;;15.79;67.97;100725.72;815902;54;20137;-82
2021/09/02 00:58:18;;;;;;;7.35;4.88;;;;;;;15.69;68.42;100729.41;815823;54;20019;-83
2021/09/02 00:59:04;;;;;;;7.28;5.00;;;;;;;15.78;68.10;100730.28;815814;54;20061;-81
2021/09/02 01:00:10;;;;;;;5.85;4.20;;;;;;;15.78;67.95;100737.50;815853;54;20041;-83
2021/09/02 01:00:56;;;;;;;7.55;4.45;;;;;;;15.85;67.89;100730.53;815918;54;20717;-82
2021/09/02 01:02:17;;;;;;;7.43;4.30;;;;;;;15.84;67.92;100732.34;816453;39;20843;-82
2021/09/02 01:03:03;;;;;;;6.80;4.93;;;;;;;15.82;67.90;100717.34;815765;47;20069;-80
2021/09/02 01:03:52;;;;;;;6.70;4.57;;;;;;;15.87;67.68;100717.72;815872;54;20049;-81
2021/09/02 01:04:38;;;;;;;6.00;4.60;;;;;;;15.88;67.71;100719.41;815884;54;20982;-80
2021/09/02 01:05:43;;;;;;;8.82;5.00;;;;;;;15.79;68.05;100720.34;815830;54;20041;-81
2021/09/02 01:06:29;;;;;;;6.50;4.53;;;;;;;15.83;68.03;100721.72;815982;54;20050;-83
2021/09/02 01:07:19;;;;;;;5.75;4.07;;;;;;;15.88;67.88;100722.94;815817;54;20045;-83
2021/09/02 01:08:08;;;;;;;6.95;4.10;;;;;;;15.86;67.51;100726.81;835861;31;20966;-82
2021/09/02 01:09:19;;;;;;;7.90;4.25;;;;;;;15.82;67.92;100723.56;816009;54;20031;-81
2021/09/02 01:10:06;;;;;;;6.88;3.88;;;;;;;15.82;67.61;100725.41;815948;54;20125;-81
2021/09/02 01:10:55;;;;;;;6.45;4.13;;;;;;;15.86;67.60;100724.13;815906;54;20034;-82
2021/09/02 01:11:41;;;;;;;8.18;5.22;;;;;;;15.87;67.56;100731.22;815967;54;20035;-83
2021/09/02 01:12:44;;;;;;;5.88;4.10;;;;;;;15.79;67.64;100729.28;815866;54;20018;-81
2021/09/02 01:13:52;;;;;;;7.53;4.80;;;;;;;15.74;67.89;100723.53;815799;47;20081;-81
2021/09/02 01:14:48;;;;;;;6.70;4.40;;;;;;;15.74;68.01;100727.09;815910;54;20034;-82
2021/09/02 01:15:43;;;;;;;7.63;4.35;;;;;;;15.77;67.88;100730.47;815829;47;20098;-81
2021/09/02 01:16:29;;;;;;;6.97;5.10;;;;;;;15.78;67.82;100726.75;815864;47;20058;-83
2021/09/02 01:17:18;;;;;;;8.15;4.55;;;;;;;15.79;67.68;100723.03;819147;39;20667;-82
2021/09/02 01:18:04;;;;;;;5.80;4.28;;;;;;;15.82;67.65;100726.25;815930;54;20042;-81
2021/09/02 01:18:52;;;;;;;5.93;4.10;;;;;;;15.83;67.79;100730.63;815768;47;20090;-81
2021/09/02 01:19:38;;;;;;;6.57;4.57;;;;;;;15.78;67.89;100729.44;815820;54;21075;-81
2021/09/02 01:20:52;;;;;;;6.50;4.60;;;;;;;15.67;68.14;100728.75;815776;54;20034;-82
2021/09/02 01:21:38;;;;;;;6.10;4.55;;;;;;;15.70;68.08;100730.25;815961;54;20042;-82
2021/09/02 01:22:25;;;;;;;6.80;4.53;;;;;;;15.74;67.98;100723.53;815767;47;20046;-82
2021/09/02 01:23:20;;;;;;;6.72;4.03;;;;;;;15.73;67.74;100720.00;815890;47;20019;-82
2021/09/02 01:24:06;;;;;;;6.55;4.43;;;;;;;15.73;67.94;100727.22;815928;54;20121;-80
2021/09/02 01:24:55;;;;;;;7.93;4.50;;;;;;;15.74;68.17;100729.78;815753;54;20019;-82
2021/09/02 01:25:51;;;;;;;7.32;4.53;;;;;;;15.67;68.19;100726.03;815773;54;20057;-81
2021/09/02 01:26:37;;;;;;;6.40;4.55;;;;;;;15.72;68.26;100725.56;815924;54;20031;-82
2021/09/02 01:27:32;;;;;;;7.47;4.25;;;;;;;15.67;68.20;100728.75;815946;54;20122;-81
2021/09/02 01:28:18;;;;;;;6.63;4.78;;;;;;;15.67;68.25;100728.75;815739;54;20130;-81
2021/09/02 01:29:08;;;;;;;7.78;5.05;;;;;;;15.63;68.27;100724.66;815772;46;20078;-81
2021/09/02 01:29:55;;;;;;;6.93;4.97;;;;;;;15.55;68.76;100732.72;815832;54;20022;-82
2021/09/02 01:30:45;;;;;;;6.43;4.32;;;;;;;15.55;68.47;100730.03;821734;39;20736;-83
2021/09/02 01:31:32;;;;;;;6.57;4.72;;;;;;;15.55;68.55;100730.03;815751;54;20026;-84
2021/09/02 01:32:21;;;;;;;6.97;4.85;;;;;;;15.56;68.45;100729.03;819389;39;20673;-80
2021/09/02 01:33:09;;;;;;;7.05;4.43;;;;;;;15.55;68.61;100740.81;815719;47;20855;-80
2021/09/02 01:33:57;;;;;;;7.88;4.90;;;;;;;15.51;68.70;100729.50;816294;46;20043;-81
2021/09/02 01:34:43;;;;;;;8.25;4.78;;;;;;;15.51;68.55;100734.03;815851;47;20071;-81
2021/09/02 01:35:51;;;;;;;7.72;5.07;;;;;;;15.43;68.73;100738.38;815819;54;20034;-81
2021/09/02 01:36:37;;;;;;;6.72;4.63;;;;;;;15.40;68.85;100730.59;815765;54;20113;-82
2021/09/02 01:37:25;;;;;;;8.38;5.32;;;;;;;15.41;68.90;100734.16;815751;54;20070;-80
2021/09/02 01:38:12;;;;;;;7.35;4.97;;;;;;;15.36;69.14;100740.03;818762;39;20564;-83
2021/09/02 01:39:23;;;;;;;6.55;4.95;;;;;;;15.30;69.48;100735.28;815683;46;20044;-84
2021/09/02 01:41:27;;;;;;;6.47;4.50;;;;;;;15.20;69.57;100731.84;815375;47;19966;-81
2021/09/02 01:42:13;;;;;;;7.07;4.40;;;;;;;15.22;69.59;100736.06;820185;31;20848;-81
2021/09/02 01:43:04;;;;;;;6.25;4.18;;;;;;;15.30;69.33;100732.59;815513;47;20047;-80
2021/09/02 01:43:50;;;;;;;6.28;4.40;;;;;;;15.25;69.29;100737.59;815677;47;20116;-82
2021/09/02 01:44:39;;;;;;;9.43;5.60;;;;;;;15.26;69.27;100731.22;815800;54;20030;-83
2021/09/02 01:45:25;;;;;;;6.88;4.55;;;;;;;15.31;69.48;100728.88;825375;39;20812;-81
2021/09/02 01:46:14;;;;;;;7.88;4.78;;;;;;;15.35;69.19;100734.81;816498;39;20853;-82
2021/09/02 01:47:00;;;;;;;7.28;4.28;;;;;;;15.32;69.39;100725.16;815889;54;20034;-81
2021/09/02 01:47:59;;;;;;;6.22;4.43;;;;;;;15.28;68.98;100724.66;815633;47;20026;-81
2021/09/02 01:48:56;;;;;;;6.78;4.57;;;;;;;15.29;69.27;100728.19;815760;54;20121;-81
2021/09/02 01:50:09;;;;;;;6.45;4.65;;;;;;;15.20;69.54;100731.84;815679;54;20101;-82
2021/09/02 01:50:55;;;;;;;8.02;4.72;;;;;;;15.25;69.38;100729.50;815669;47;20124;-83
2021/09/02 01:51:55;;;;;;;7.05;5.07;;;;;;;15.20;69.59;100726.47;819871;39;20654;-82
2021/09/02 01:52:44;;;;;;;6.82;5.00;;;;;;;15.22;69.62;100730.69;815646;54;20080;-80
2021/09/02 01:53:32;;;;;;;7.68;4.85;;;;;;;15.20;69.53;100727.28;815617;54;20707;-80
2021/09/02 01:54:30;;;;;;;8.00;5.18;;;;;;;15.17;69.92;100724.91;815751;46;20169;-82
2021/09/02 01:55:25;;;;;;;6.97;5.13;;;;;;;15.15;70.00;100728.78;815654;47;20100;-82
2021/09/02 01:56:11;;;;;;;10.25;5.03;;;;;;;15.17;69.67;100724.91;815691;54;20047;-81
2021/09/02 01:57:00;;;;;;;7.40;5.05;;;;;;;15.19;69.56;100724.78;815734;47;20891;-81
2021/09/02 01:57:46;;;;;;;6.75;4.97;;;;;;;15.18;69.82;100723.91;815599;54;20766;-81
2021/09/02 01:58:54;;;;;;;6.57;4.78;;;;;;;15.18;70.01;100723.09;815666;54;20816;-83
2021/09/02 01:59:41;;;;;;;8.80;5.03;;;;;;;15.17;69.96;100726.78;815665;54;20090;-82
2021/09/02 02:00:29;;;;;;;7.13;4.90;;;;;;;15.18;69.78;100718.53;820970;39;20681;-81
2021/09/02 02:01:17;;;;;;;7.68;5.07;;;;;;;15.18;69.92;100723.91;829632;31;20739;-81
2021/09/02 02:02:07;;;;;;;9.07;5.05;;;;;;;15.18;69.87;100728.47;815778;54;20034;-81
2021/09/02 02:02:53;;;;;;;6.75;4.78;;;;;;;15.16;69.99;100725.09;815737;47;20126;-83
2021/09/02 02:03:42;;;;;;;7.07;4.80;;;;;;;15.18;69.82;100723.91;815747;54;20069;-81
2021/09/02 02:04:39;;;;;;;7.40;5.03;;;;;;;15.09;70.25;100720.34;817374;31;20824;-81
2021/09/02 02:05:54;;;;;;;7.57;4.68;;;;;;;15.10;70.16;100721.16;815702;47;20867;-82
2021/09/02 02:06:40;;;;;;;7.88;5.35;;;;;;;15.10;69.97;100721.16;817648;39;20532;-82
2021/09/02 02:07:28;;;;;;;7.13;5.38;;;;;;;15.09;70.21;100720.34;815602;54;20034;-83
2021/09/02 02:08:16;;;;;;;8.15;5.72;;;;;;;15.10;70.17;100721.16;815588;54;20072;-81
2021/09/02 02:09:16;;;;;;;9.40;5.57;;;;;;;15.02;70.21;100713.88;815673;54;20125;-83
2021/09/02 02:10:22;;;;;;;8.02;5.35;;;;;;;14.94;70.30;100722.75;815656;47;20098;-83
2021/09/02 02:11:11;;;;;;;7.35;5.45;;;;;;;14.91;70.61;100727.59;815719;54;20034;-81
2021/09/02 02:11:57;;;;;;;7.45;5.15;;;;;;;14.93;70.33;100718.38;815557;54;20038;-81
2021/09/02 02:12:46;;;;;;;8.52;6.03;;;;;;;14.92;70.36;100718.53;815637;47;20094;-81
2021/09/02 02:13:32;;;;;;;6.88;5.25;;;;;;;14.91;70.55;100722.22;815646;54;20214;-80
2021/09/02 02:14:21;;;;;;;7.50;5.18;;;;;;;14.91;70.45;100723.06;816028;46;20042;-81
2021/09/02 02:15:09;;;;;;;6.65;4.85;;;;;;;14.93;70.69;100731.81;815658;54;20082;-82
2021/09/02 02:15:58;;;;;;;6.60;5.07;;;;;;;14.94;70.53;100711.13;815679;46;21118;-80
2021/09/02 02:16:44;;;;;;;7.68;5.03;;;;;;;14.93;70.51;100715.69;815631;47;20115;-81
2021/09/02 02:17:32;;;;;;;8.00;5.55;;;;;;;14.95;70.76;100719.06;816165;46;20034;-82
2021/09/02 02:18:19;;;;;;;7.00;5.22;;;;;;;14.92;70.58;100718.53;815687;47;20034;-82
2021/09/02 02:19:07;;;;;;;7.05;5.10;;;;;;;14.88;70.77;100725.22;815748;54;20065;-82
2021/09/02 02:19:53;;;;;;;7.13;5.07;;;;;;;14.87;70.80;100713.63;815767;54;20088;-84
2021/09/02 02:20:43;;;;;;;6.68;4.85;;;;;;;14.88;70.74;100722.53;815668;54;20706;-82
2021/09/02 02:21:29;;;;;;;7.05;4.97;;;;;;;14.80;70.80;100713.41;816006;46;20121;-83
2021/09/02 02:22:18;;;;;;;8.32;5.00;;;;;;;14.83;70.78;100723.00;815693;54;20045;-83
2021/09/02 02:23:05;;;;;;;6.65;4.70;;;;;;;14.81;70.83;100723.16;815708;54;20122;-82
2021/09/02 02:23:53;;;;;;;7.20;5.00;;;;;;;14.80;70.98;100716.09;815565;54;20061;-81
2021/09/02 02:24:39;;;;;;;7.10;5.15;;;;;;;14.76;71.13;100717.38;815679;54;20759;-81
2021/09/02 02:25:31;;;;;;;7.75;5.25;;;;;;;14.70;71.32;100725.22;816799;39;20642;-82
2021/09/02 02:26:17;;;;;;;7.15;5.75;;;;;;;14.70;71.36;100714.47;815706;54;20038;-81
2021/09/02 02:27:07;;;;;;;6.57;5.05;;;;;;;14.76;71.38;100720.06;815711;54;20030;-82
2021/09/02 02:27:54;;;;;;;7.20;5.30;;;;;;;14.74;70.95;100722.06;818132;39;20745;-80
2021/09/02 02:28:49;;;;;;;7.85;5.43;;;;;;;14.73;71.50;100717.72;815629;46;20034;-83
2021/09/02 02:29:35;;;;;;;6.68;4.60;;;;;;;14.79;71.18;100716.22;815538;54;20102;-83
2021/09/02 02:30:24;;;;;;;7.38;5.25;;;;;;;14.81;70.88;100717.78;815647;54;20035;-82
2021/09/02 02:31:10;;;;;;;7.15;4.93;;;;;;;14.75;71.00;100721.06;815629;54;20045;-83
2021/09/02 02:31:59;;;;;;;9.25;5.60;;;;;;;14.75;71.17;100718.38;815708;47;20034;-81
2021/09/02 02:32:47;;;;;;;8.63;6.10;;;;;;;14.77;70.82;100724.47;815575;54;20029;-84
2021/09/02 02:33:35;;;;;;;6.63;4.90;;;;;;;14.80;70.90;100726.84;815672;54;20098;-80
2021/09/02 02:34:21;;;;;;;7.40;5.32;;;;;;;14.79;70.95;100724.28;815596;54;20786;-82
2021/09/02 02:35:09;;;;;;;7.18;5.50;;;;;;;14.80;70.70;100720.59;815693;54;20030;-82
2021/09/02 02:35:58;;;;;;;7.50;4.57;;;;;;;14.82;70.67;100719.47;815724;54;20025;-84
2021/09/02 02:36:44;;;;;;;8.07;4.85;;;;;;;14.81;71.14;100720.47;815808;54;20065;-82
2021/09/02 02:37:33;;;;;;;6.65;4.75;;;;;;;14.81;70.89;100716.91;815855;54;20019;-82
2021/09/02 02:38:19;;;;;;;9.05;4.68;;;;;;;14.84;70.59;100722.00;815743;54;20106;-82
2021/09/02 02:39:08;;;;;;;6.43;4.60;;;;;;;14.88;70.71;100722.53;815743;47;20041;-82
2021/09/02 02:39:54;;;;;;;8.88;4.40;;;;;;;14.86;70.78;100714.63;815800;54;20050;-84
2021/09/02 02:40:45;;;;;;;7.60;5.68;;;;;;;14.63;71.54;100720.44;815865;54;20025;-81
2021/09/02 02:41:32;;;;;;;8.95;5.95;;;;;;;14.63;71.56;100716.94;815569;47;20129;-81
2021/09/02 02:42:21;;;;;;;7.13;4.60;;;;;;;14.74;71.12;100722.06;815143;46;20014;-83
2021/09/02 02:43:07;;;;;;;8.23;5.25;;;;;;;14.66;71.39;100717.50;815653;54;20045;-82
2021/09/02 02:43:56;;;;;;;7.93;5.55;;;;;;;14.71;71.54;100717.03;815692;54;20030;-82
2021/09/02 02:44:42;;;;;;;7.47;5.28;;;;;;;14.77;71.12;100712.88;815598;54;20027;-83
2021/09/02 02:45:31;;;;;;;6.80;4.88;;;;;;;14.80;71.17;100710.69;815711;54;20046;-82
2021/09/02 02:46:17;;;;;;;9.38;5.35;;;;;;;14.82;70.91;100719.47;815689;47;20987;-83
2021/09/02 02:47:07;;;;;;;7.50;5.28;;;;;;;14.81;70.97;100717.78;815693;54;20048;-82
2021/09/02 02:47:53;;;;;;;6.72;4.45;;;;;;;14.79;70.95;100719.78;815327;54;20094;-83
2021/09/02 02:48:42;;;;;;;6.95;5.07;;;;;;;14.81;70.83;100720.47;815713;54;20128;-83
2021/09/02 02:49:28;;;;;;;5.70;4.15;;;;;;;14.80;71.18;100723.28;815646;54;20120;-83
2021/09/02 02:50:17;;;;;;;6.93;4.70;;;;;;;14.80;70.87;100715.22;815847;47;20034;-83
2021/09/02 02:51:03;;;;;;;7.03;4.10;;;;;;;14.80;71.04;100721.47;815665;54;20091;-82
2021/09/02 02:51:49;;;;;;;8.10;5.25;;;;;;;14.80;70.88;100715.22;816994;39;20752;-83
2021/09/02 02:52:38;;;;;;;7.60;5.10;;;;;;;14.80;71.18;100716.09;815532;47;20046;-82
2021/09/02 02:53:24;;;;;;;7.13;4.60;;;;;;;14.84;71.09;100719.31;815721;54;20034;-84
2021/09/02 02:54:19;;;;;;;6.88;4.68;;;;;;;14.79;70.73;100724.28;815695;54;20018;-81
2021/09/02 02:55:06;;;;;;;8.80;4.90;;;;;;;14.83;70.97;100720.31;815650;54;20038;-83
2021/09/02 02:55:57;;;;;;;8.15;5.05;;;;;;;14.84;70.96;100726.53;815633;47;20060;-82
2021/09/02 02:56:43;;;;;;;9.57;5.13;;;;;;;14.81;70.83;100717.78;815651;54;20026;-80
2021/09/02 02:57:32;;;;;;;7.55;5.30;;;;;;;14.76;70.98;100725.47;815543;54;20802;-83
2021/09/02 02:58:18;;;;;;;6.38;4.75;;;;;;;14.78;70.95;100723.47;815739;54;20046;-80
2021/09/02 02:59:07;;;;;;;8.07;5.50;;;;;;;14.76;71.06;100719.25;815711;54;20060;-82
2021/09/02 02:59:54;;;;;;;8.85;6.07;;;;;;;14.67;71.55;100721.00;815595;54;20050;-84
2021/09/02 03:00:43;;;;;;;8.10;5.43;;;;;;;14.71;71.28;100725.09;815574;54;20044;-82
2021/09/02 03:01:30;;;;;;;6.57;4.80;;;;;;;14.70;71.16;100717.16;818975;39;20727;-82
2021/09/02 03:02:40;;;;;;;9.38;6.30;;;;;;;14.55;72.08;100722.25;815503;47;20036;-81
2021/09/02 03:03:27;;;;;;;9.88;5.93;;;;;;;14.56;71.54;100719.38;821265;39;21018;-83
2021/09/02 03:04:18;;;;;;;7.57;5.53;;;;;;;14.58;71.34;100717.38;816003;39;20678;-84
2021/09/02 03:05:24;;;;;;;9.30;5.53;;;;;;;14.50;71.99;100726.22;815531;54;20090;-84
2021/09/02 03:06:11;;;;;;;8.23;5.32;;;;;;;14.51;71.49;100719.84;815718;54;20042;-83
2021/09/02 03:07:00;;;;;;;7.00;5.32;;;;;;;14.51;71.60;100717.16;815669;54;20034;-84
2021/09/02 03:07:48;;;;;;;7.35;5.32;;;;;;;14.54;71.56;100712.47;815498;47;20146;-83
2021/09/02 03:08:50;;;;;;;6.43;4.65;;;;;;;14.51;71.82;100717.16;815502;54;20778;-82
2021/09/02 03:09:40;;;;;;;7.57;5.00;;;;;;;14.48;71.91;100712.06;815719;54;20130;-81
2021/09/02 03:10:29;;;;;;;8.13;5.38;;;;;;;14.46;71.88;100713.22;815747;54;20019;-85
2021/09/02 03:11:18;;;;;;;8.43;5.90;;;;;;;14.46;71.81;100716.75;815676;54;20121;-82
2021/09/02 03:12:08;;;;;;;6.57;4.78;;;;;;;14.48;71.78;100708.56;815509;54;20034;-83
2021/09/02 03:13:24;;;;;;;8.20;5.68;;;;;;;14.40;72.25;100709.31;815639;54;20148;-80
2021/09/02 03:14:10;;;;;;;8.98;5.13;;;;;;;14.42;72.08;100710.00;821210;39;20701;-82
2021/09/02 03:14:59;;;;;;;7.47;5.18;;;;;;;14.44;71.89;100710.72;815574;54;20035;-81
2021/09/02 03:15:59;;;;;;;8.38;6.00;;;;;;;14.39;71.91;100713.00;815622;54;20102;-81
2021/09/02 03:16:48;;;;;;;7.60;5.20;;;;;;;14.42;72.17;100717.22;815516;54;20094;-81
2021/09/02 03:17:51;;;;;;;9.88;5.70;;;;;;;14.33;72.38;100716.31;815467;54;20050;-82
2021/09/02 03:18:39;;;;;;;7.15;4.95;;;;;;;14.41;72.00;100712.84;815546;47;20045;-84
2021/09/02 03:19:28;;;;;;;7.60;4.97;;;;;;;14.43;71.64;100718.91;815563;54;20038;-82
2021/09/02 03:20:16;;;;;;;9.10;6.18;;;;;;;14.45;71.80;100717.75;815575;54;20046;-82
2021/09/02 03:21:03;;;;;;;6.88;5.25;;;;;;;14.43;71.85;100714.41;815543;47;20102;-83
2021/09/02 03:22:02;;;;;;;8.88;5.38;;;;;;;14.37;72.13;100719.53;815570;54;20802;-81
2021/09/02 03:22:56;;;;;;;8.40;5.22;;;;;;;14.40;71.95;100719.25;815620;47;20113;-82
2021/09/02 03:23:45;;;;;;;7.28;5.25;;;;;;;14.44;71.88;100715.22;815564;54;20048;-82
2021/09/02 03:24:31;;;;;;;6.93;4.63;;;;;;;14.49;71.73;100713.78;815585;54;20035;-85
2021/09/02 03:25:20;;;;;;;6.95;4.97;;;;;;;14.52;71.34;100712.59;815649;54;20042;-84
2021/09/02 03:26:07;;;;;;;7.03;5.03;;;;;;;14.50;71.42;100722.66;815669;54;20698;-82
2021/09/02 03:26:55;;;;;;;8.23;5.50;;;;;;;14.50;71.45;100725.34;815562;54;20822;-81
2021/09/02 03:27:44;;;;;;;7.00;4.88;;;;;;;14.45;71.75;100716.91;815545;54;20046;-82
2021/09/02 03:28:30;;;;;;;6.93;5.30;;;;;;;14.46;71.49;100714.06;815687;47;20049;-82
2021/09/02 03:29:55;;;;;;;7.57;5.10;;;;;;;14.39;71.77;100723.75;815531;54;20034;-82
2021/09/02 03:30:41;;;;;;;7.28;4.90;;;;;;;14.40;71.79;100714.69;815572;47;20083;-81
2021/09/02 03:31:30;;;;;;;8.15;5.00;;;;;;;14.46;71.49;100716.75;815597;54;20624;-83
2021/09/02 03:32:16;;;;;;;5.95;4.32;;;;;;;14.49;71.21;100715.63;816489;39;20536;-82
2021/09/02 03:33:05;;;;;;;7.05;4.90;;;;;;;14.46;71.25;100714.06;815565;54;20038;-82
2021/09/02 03:34:06;;;;;;;7.07;4.75;;;;;;;14.46;71.43;100713.22;815547;47;20086;-83
2021/09/02 03:35:42;;;;;;;7.55;4.82;;;;;;;14.51;71.24;100719.84;814486;39;20386;-78
2021/09/02 03:36:31;;;;;;;6.05;4.28;;;;;;;14.57;71.03;100714.84;813469;47;20110;-78
2021/09/02 03:37:17;;;;;;;7.03;4.95;;;;;;;14.50;71.38;100715.47;814125;39;20523;-78
2021/09/02 03:38:06;;;;;;;6.97;5.13;;;;;;;14.53;71.39;100717.00;813745;54;20630;-78
2021/09/02 03:38:52;;;;;;;7.68;5.22;;;;;;;14.51;71.07;100708.22;813620;54;20425;-77
2021/09/02 03:39:41;;;;;;;8.05;5.45;;;;;;;14.49;71.18;100713.78;813151;47;20646;-78
2021/09/02 03:40:27;;;;;;;7.97;5.50;;;;;;;14.45;71.60;100717.75;813463;47;20038;-79
2021/09/02 03:41:16;;;;;;;9.00;5.45;;;;;;;14.44;71.38;100717.91;813431;54;20068;-79
2021/09/02 03:42:04;;;;;;;9.75;5.57;;;;;;;14.23;72.25;100715.53;813712;54;20069;-78
2021/09/02 03:42:53;;;;;;;8.05;5.68;;;;;;;14.22;72.19;100713.84;813338;47;20153;-77
2021/09/02 03:43:39;;;;;;;10.25;6.25;;;;;;;14.28;72.22;100722.16;813485;54;20099;-78
2021/09/02 03:44:27;;;;;;;7.85;5.30;;;;;;;14.34;72.14;100718.00;813718;54;20059;-78
2021/09/02 03:45:13;;;;;;;10.50;6.03;;;;;;;14.32;72.04;100715.44;813395;54;20038;-78
2021/09/02 03:46:02;;;;;;;7.80;5.72;;;;;;;14.35;72.04;100722.38;813565;47;20034;-78
2021/09/02 03:46:48;;;;;;;8.32;5.97;;;;;;;14.35;71.75;100717.84;813373;54;20620;-78
2021/09/02 03:47:37;;;;;;;7.55;5.70;;;;;;;14.31;71.99;100716.44;813562;54;20066;-79
2021/09/02 03:48:22;;;;;;;6.75;4.95;;;;;;;14.34;71.75;100710.78;813204;47;20081;-78
2021/09/02 03:49:11;;;;;;;7.80;4.88;;;;;;;14.37;71.80;100719.53;813290;39;20524;-78
2021/09/02 03:49:57;;;;;;;6.63;5.13;;;;;;;14.39;72.05;100714.84;813875;39;20536;-78
2021/09/02 03:50:46;;;;;;;7.55;4.88;;;;;;;14.37;71.60;100716.84;813041;54;20060;-78
2021/09/02 03:51:32;;;;;;;8.77;5.30;;;;;;;14.35;71.75;100722.38;813045;47;20579;-78
2021/09/02 03:52:20;;;;;;;7.65;5.63;;;;;;;14.29;72.14;100720.28;813347;47;20876;-77
2021/09/02 03:53:06;;;;;;;8.35;4.63;;;;;;;14.32;72.16;100723.50;813368;39;20526;-78
2021/09/02 03:53:55;;;;;;;6.80;4.55;;;;;;;14.39;71.68;100718.38;813235;47;20073;-79
2021/09/02 03:54:41;;;;;;;7.13;4.68;;;;;;;14.40;71.77;100725.44;812962;47;20034;-77
2021/09/02 03:55:29;;;;;;;6.38;4.60;;;;;;;14.38;71.73;100716.69;813264;54;20056;-79
2021/09/02 03:56:15;;;;;;;7.20;5.15;;;;;;;14.37;71.98;100715.00;812837;54;20065;-78
2021/09/02 03:57:06;;;;;;;7.53;4.18;;;;;;;14.41;71.74;100713.69;812902;47;20034;-78
2021/09/02 03:57:52;;;;;;;7.95;4.60;;;;;;;14.41;71.79;100716.38;812612;54;20038;-78
2021/09/02 03:58:41;;;;;;;7.30;5.05;;;;;;;14.38;72.01;100724.75;812343;54;20034;-79
2021/09/02 03:59:27;;;;;;;6.03;4.45;;;;;;;14.42;71.56;100719.91;812891;54;20046;-77
2021/09/02 04:00:16;;;;;;;7.97;5.70;;;;;;;14.41;71.79;100708.31;812740;54;20095;-79
2021/09/02 04:01:02;;;;;;;6.70;4.82;;;;;;;14.40;71.66;100717.38;812276;46;20046;-78
2021/09/02 04:01:51;;;;;;;7.53;5.65;;;;;;;14.37;71.78;100717.69;812133;54;20042;-78
2021/09/02 04:02:37;;;;;;;8.63;5.15;;;;;;;14.37;71.54;100715.00;812345;47;20047;-78
2021/09/02 04:03:26;;;;;;;7.38;4.80;;;;;;;14.36;71.62;100718.69;812235;54;20042;-78
2021/09/02 04:04:12;;;;;;;6.95;4.75;;;;;;;14.35;71.71;100715.16;812292;47;20071;-77